sensor_id;sensor_type;location;lat;lon;timestamp;P1;durP1;ratioP1;P2;durP2;ratioP2
11123;SDS011;5616;42.692;23.312;2022-08-19T00:01:21;7.67;;;4.93;;
11123;SDS011;5616;42.692;23.312;2022-08-19T00:03:48;7.43;;;5.60;;
11123;SDS011;5616;42.692;23.312;2022-08-19T00:06:15;6.93;;;5.07;;
11123;SDS011;5616;42.692;23.312;2022-08-19T00:08:42;6.70;;;4.90;;
11123;SDS011;5616;42.692;23.312;2022-08-19T00:11:11;6.30;;;4.63;;
11123;SDS011;5616;42.692;23.312;2022-08-19T00:13:38;7.70;;;5.30;;
11123;SDS011;5616;42.692;23.312;2022-08-19T00:16:06;10.47;;;5.10;;
11123;SDS011;5616;42.692;23.312;2022-08-19T00:18:33;8.20;;;5.40;;
11123;SDS011;5616;42.692;23.312;2022-08-19T00:21:01;8.13;;;5.97;;
11123;SDS011;5616;42.692;23.312;2022-08-19T00:23:28;8.77;;;5.57;;
11123;SDS011;5616;42.692;23.312;2022-08-19T00:25:55;8.03;;;5.50;;
11123;SDS011;5616;42.692;23.312;2022-08-19T00:28:23;7.33;;;5.40;;
11123;SDS011;5616;42.692;23.312;2022-08-19T00:30:50;8.70;;;5.60;;
11123;SDS011;5616;42.692;23.312;2022-08-19T00:33:18;8.23;;;5.40;;
11123;SDS011;5616;42.692;23.312;2022-08-19T00:35:45;8.23;;;5.70;;
11123;SDS011;5616;42.692;23.312;2022-08-19T00:38:12;9.00;;;5.47;;
11123;SDS011;5616;42.692;23.312;2022-08-19T00:40:42;6.43;;;5.20;;
11123;SDS011;5616;42.692;23.312;2022-08-19T00:43:12;10.60;;;5.57;;
11123;SDS011;5616;42.692;23.312;2022-08-19T00:45:41;6.27;;;5.57;;
11123;SDS011;5616;42.692;23.312;2022-08-19T00:48:09;9.50;;;6.03;;
11123;SDS011;5616;42.692;23.312;2022-08-19T00:50:36;10.20;;;5.10;;
11123;SDS011;5616;42.692;23.312;2022-08-19T00:53:08;8.07;;;5.57;;
11123;SDS011;5616;42.692;23.312;2022-08-19T00:55:36;6.93;;;5.00;;
11123;SDS011;5616;42.692;23.312;2022-08-19T00:58:05;9.30;;;5.50;;
11123;SDS011;5616;42.692;23.312;2022-08-19T01:00:34;5.83;;;5.33;;
11123;SDS011;5616;42.692;23.312;2022-08-19T01:03:04;6.93;;;5.37;;
11123;SDS011;5616;42.692;23.312;2022-08-19T01:05:31;5.77;;;5.20;;
11123;SDS011;5616;42.692;23.312;2022-08-19T01:07:59;8.23;;;5.40;;
11123;SDS011;5616;42.692;23.312;2022-08-19T01:10:29;5.70;;;5.10;;
11123;SDS011;5616;42.692;23.312;2022-08-19T01:12:58;7.07;;;5.07;;
11123;SDS011;5616;42.692;23.312;2022-08-19T01:15:28;6.37;;;5.00;;
11123;SDS011;5616;42.692;23.312;2022-08-19T01:17:57;7.53;;;5.17;;
11123;SDS011;5616;42.692;23.312;2022-08-19T01:20:28;6.07;;;4.97;;
11123;SDS011;5616;42.692;23.312;2022-08-19T01:22:57;4.90;;;4.50;;
11123;SDS011;5616;42.692;23.312;2022-08-19T01:25:26;4.90;;;4.40;;
11123;SDS011;5616;42.692;23.312;2022-08-19T01:27:55;7.13;;;5.20;;
11123;SDS011;5616;42.692;23.312;2022-08-19T01:30:23;9.53;;;5.40;;
11123;SDS011;5616;42.692;23.312;2022-08-19T01:32:53;8.80;;;4.57;;
11123;SDS011;5616;42.692;23.312;2022-08-19T01:35:21;8.73;;;4.53;;
11123;SDS011;5616;42.692;23.312;2022-08-19T01:37:50;9.23;;;5.07;;
11123;SDS011;5616;42.692;23.312;2022-08-19T01:40:21;8.07;;;4.60;;
11123;SDS011;5616;42.692;23.312;2022-08-19T01:42:51;6.83;;;4.50;;
11123;SDS011;5616;42.692;23.312;2022-08-19T01:45:19;9.13;;;4.47;;
11123;SDS011;5616;42.692;23.312;2022-08-19T01:47:47;6.23;;;5.30;;
11123;SDS011;5616;42.692;23.312;2022-08-19T01:50:15;6.03;;;5.07;;
11123;SDS011;5616;42.692;23.312;2022-08-19T01:52:43;5.70;;;4.97;;
11123;SDS011;5616;42.692;23.312;2022-08-19T01:55:11;5.40;;;4.43;;
11123;SDS011;5616;42.692;23.312;2022-08-19T01:57:42;5.90;;;4.70;;
11123;SDS011;5616;42.692;23.312;2022-08-19T02:00:15;6.73;;;5.30;;
11123;SDS011;5616;42.692;23.312;2022-08-19T02:02:43;6.57;;;5.03;;
11123;SDS011;5616;42.692;23.312;2022-08-19T02:05:11;7.73;;;5.63;;
11123;SDS011;5616;42.692;23.312;2022-08-19T02:07:38;7.57;;;5.47;;
11123;SDS011;5616;42.692;23.312;2022-08-19T02:10:07;6.70;;;5.60;;
11123;SDS011;5616;42.692;23.312;2022-08-19T02:12:36;8.60;;;5.60;;
11123;SDS011;5616;42.692;23.312;2022-08-19T02:15:05;8.20;;;5.63;;
11123;SDS011;5616;42.692;23.312;2022-08-19T02:17:33;7.13;;;5.13;;
11123;SDS011;5616;42.692;23.312;2022-08-19T02:20:00;11.03;;;5.30;;
11123;SDS011;5616;42.692;23.312;2022-08-19T02:22:27;6.53;;;5.53;;
11123;SDS011;5616;42.692;23.312;2022-08-19T02:24:54;7.77;;;6.00;;
11123;SDS011;5616;42.692;23.312;2022-08-19T02:27:22;6.60;;;5.73;;
11123;SDS011;5616;42.692;23.312;2022-08-19T02:29:50;7.13;;;5.17;;
11123;SDS011;5616;42.692;23.312;2022-08-19T02:32:19;6.10;;;5.50;;
11123;SDS011;5616;42.692;23.312;2022-08-19T02:34:46;6.53;;;5.27;;
11123;SDS011;5616;42.692;23.312;2022-08-19T02:37:14;6.60;;;5.40;;
11123;SDS011;5616;42.692;23.312;2022-08-19T02:39:55;6.55;;;5.90;;
11123;SDS011;5616;42.692;23.312;2022-08-19T02:42:21;6.03;;;5.43;;
11123;SDS011;5616;42.692;23.312;2022-08-19T02:44:48;7.53;;;5.50;;
11123;SDS011;5616;42.692;23.312;2022-08-19T02:47:17;7.23;;;5.57;;
11123;SDS011;5616;42.692;23.312;2022-08-19T02:49:45;8.13;;;6.40;;
11123;SDS011;5616;42.692;23.312;2022-08-19T02:52:14;7.93;;;6.13;;
11123;SDS011;5616;42.692;23.312;2022-08-19T02:54:41;7.70;;;6.37;;
11123;SDS011;5616;42.692;23.312;2022-08-19T02:57:08;7.70;;;6.87;;
11123;SDS011;5616;42.692;23.312;2022-08-19T02:59:35;7.20;;;6.50;;
11123;SDS011;5616;42.692;23.312;2022-08-19T03:02:02;9.23;;;6.80;;
11123;SDS011;5616;42.692;23.312;2022-08-19T03:04:31;7.63;;;6.93;;
11123;SDS011;5616;42.692;23.312;2022-08-19T03:06:58;10.03;;;6.90;;
11123;SDS011;5616;42.692;23.312;2022-08-19T03:09:24;8.00;;;6.73;;
11123;SDS011;5616;42.692;23.312;2022-08-19T03:11:51;8.50;;;6.90;;
11123;SDS011;5616;42.692;23.312;2022-08-19T03:14:18;9.57;;;6.57;;
11123;SDS011;5616;42.692;23.312;2022-08-19T03:16:47;7.97;;;6.33;;
11123;SDS011;5616;42.692;23.312;2022-08-19T03:19:16;7.70;;;6.93;;
11123;SDS011;5616;42.692;23.312;2022-08-19T03:21:45;7.37;;;6.27;;
11123;SDS011;5616;42.692;23.312;2022-08-19T03:24:13;7.50;;;6.80;;
11123;SDS011;5616;42.692;23.312;2022-08-19T03:26:42;8.13;;;6.33;;
11123;SDS011;5616;42.692;23.312;2022-08-19T03:29:11;8.45;;;7.03;;
11123;SDS011;5616;42.692;23.312;2022-08-19T03:31:39;8.33;;;6.37;;
11123;SDS011;5616;42.692;23.312;2022-08-19T03:34:08;7.07;;;6.37;;
11123;SDS011;5616;42.692;23.312;2022-08-19T03:36:37;8.23;;;6.57;;
11123;SDS011;5616;42.692;23.312;2022-08-19T03:39:05;10.43;;;6.63;;
11123;SDS011;5616;42.692;23.312;2022-08-19T03:41:36;8.80;;;7.00;;
11123;SDS011;5616;42.692;23.312;2022-08-19T03:44:05;8.10;;;7.07;;
11123;SDS011;5616;42.692;23.312;2022-08-19T03:46:34;7.43;;;6.53;;
11123;SDS011;5616;42.692;23.312;2022-08-19T03:49:02;8.13;;;7.10;;
11123;SDS011;5616;42.692;23.312;2022-08-19T03:51:33;7.20;;;6.50;;
11123;SDS011;5616;42.692;23.312;2022-08-19T03:54:02;9.70;;;6.87;;
11123;SDS011;5616;42.692;23.312;2022-08-19T03:56:32;8.00;;;6.83;;
11123;SDS011;5616;42.692;23.312;2022-08-19T03:59:00;9.03;;;7.60;;
11123;SDS011;5616;42.692;23.312;2022-08-19T04:01:28;9.63;;;7.10;;
11123;SDS011;5616;42.692;23.312;2022-08-19T04:03:56;8.37;;;7.47;;
11123;SDS011;5616;42.692;23.312;2022-08-19T04:06:25;9.13;;;6.97;;
11123;SDS011;5616;42.692;23.312;2022-08-19T04:08:54;11.00;;;7.47;;
11123;SDS011;5616;42.692;23.312;2022-08-19T04:11:23;11.17;;;7.23;;
11123;SDS011;5616;42.692;23.312;2022-08-19T04:13:54;7.97;;;7.13;;
11123;SDS011;5616;42.692;23.312;2022-08-19T04:16:23;9.30;;;7.20;;
11123;SDS011;5616;42.692;23.312;2022-08-19T04:18:54;9.63;;;7.60;;
11123;SDS011;5616;42.692;23.312;2022-08-19T04:21:24;9.63;;;7.43;;
11123;SDS011;5616;42.692;23.312;2022-08-19T04:23:53;9.80;;;7.73;;
11123;SDS011;5616;42.692;23.312;2022-08-19T04:26:21;12.30;;;7.93;;
11123;SDS011;5616;42.692;23.312;2022-08-19T04:28:50;11.80;;;7.30;;
11123;SDS011;5616;42.692;23.312;2022-08-19T04:31:19;9.10;;;7.90;;
11123;SDS011;5616;42.692;23.312;2022-08-19T04:33:51;11.50;;;7.70;;
11123;SDS011;5616;42.692;23.312;2022-08-19T04:36:19;11.93;;;7.70;;
11123;SDS011;5616;42.692;23.312;2022-08-19T04:38:48;12.97;;;7.63;;
11123;SDS011;5616;42.692;23.312;2022-08-19T04:41:16;11.40;;;7.70;;
11123;SDS011;5616;42.692;23.312;2022-08-19T04:44:00;10.00;;;7.60;;
11123;SDS011;5616;42.692;23.312;2022-08-19T04:48:58;9.00;;;7.30;;
11123;SDS011;5616;42.692;23.312;2022-08-19T04:51:26;12.97;;;8.23;;
11123;SDS011;5616;42.692;23.312;2022-08-19T04:53:53;9.33;;;7.67;;
11123;SDS011;5616;42.692;23.312;2022-08-19T04:56:20;13.80;;;8.53;;
11123;SDS011;5616;42.692;23.312;2022-08-19T04:58:47;13.03;;;8.40;;
11123;SDS011;5616;42.692;23.312;2022-08-19T05:01:17;13.57;;;7.57;;
11123;SDS011;5616;42.692;23.312;2022-08-19T05:03:48;9.57;;;8.50;;
11123;SDS011;5616;42.692;23.312;2022-08-19T05:06:17;14.77;;;8.43;;
11123;SDS011;5616;42.692;23.312;2022-08-19T05:08:45;12.23;;;8.30;;
11123;SDS011;5616;42.692;23.312;2022-08-19T05:11:13;12.37;;;9.37;;
11123;SDS011;5616;42.692;23.312;2022-08-19T05:13:42;11.80;;;7.63;;
11123;SDS011;5616;42.692;23.312;2022-08-19T05:16:10;12.00;;;8.77;;
11123;SDS011;5616;42.692;23.312;2022-08-19T05:18:38;10.00;;;8.43;;
11123;SDS011;5616;42.692;23.312;2022-08-19T05:21:24;13.10;;;8.60;;
11123;SDS011;5616;42.692;23.312;2022-08-19T05:24:09;11.30;;;8.63;;
11123;SDS011;5616;42.692;23.312;2022-08-19T05:26:37;12.83;;;8.50;;
11123;SDS011;5616;42.692;23.312;2022-08-19T05:29:05;10.77;;;8.27;;
11123;SDS011;5616;42.692;23.312;2022-08-19T05:31:33;9.43;;;8.27;;
11123;SDS011;5616;42.692;23.312;2022-08-19T05:34:02;9.73;;;8.47;;
11123;SDS011;5616;42.692;23.312;2022-08-19T05:36:33;11.13;;;8.77;;
11123;SDS011;5616;42.692;23.312;2022-08-19T05:39:04;11.60;;;9.43;;
11123;SDS011;5616;42.692;23.312;2022-08-19T05:41:31;10.13;;;9.03;;
11123;SDS011;5616;42.692;23.312;2022-08-19T05:44:00;14.37;;;8.97;;
11123;SDS011;5616;42.692;23.312;2022-08-19T05:46:31;9.87;;;8.47;;
11123;SDS011;5616;42.692;23.312;2022-08-19T05:48:58;15.10;;;9.50;;
11123;SDS011;5616;42.692;23.312;2022-08-19T05:51:25;12.13;;;8.70;;
11123;SDS011;5616;42.692;23.312;2022-08-19T05:53:53;13.97;;;9.03;;
11123;SDS011;5616;42.692;23.312;2022-08-19T05:56:20;15.03;;;9.20;;
11123;SDS011;5616;42.692;23.312;2022-08-19T05:58:47;11.17;;;8.63;;
11123;SDS011;5616;42.692;23.312;2022-08-19T06:01:15;16.30;;;8.57;;
11123;SDS011;5616;42.692;23.312;2022-08-19T06:03:44;12.67;;;9.20;;
11123;SDS011;5616;42.692;23.312;2022-08-19T06:06:13;19.03;;;8.83;;
11123;SDS011;5616;42.692;23.312;2022-08-19T06:08:42;12.47;;;8.57;;
11123;SDS011;5616;42.692;23.312;2022-08-19T06:11:16;14.13;;;9.13;;
11123;SDS011;5616;42.692;23.312;2022-08-19T06:13:45;15.50;;;9.03;;
11123;SDS011;5616;42.692;23.312;2022-08-19T06:16:15;14.60;;;9.07;;
11123;SDS011;5616;42.692;23.312;2022-08-19T06:18:47;16.00;;;9.07;;
11123;SDS011;5616;42.692;23.312;2022-08-19T06:21:17;11.90;;;7.83;;
11123;SDS011;5616;42.692;23.312;2022-08-19T06:23:45;16.17;;;8.37;;
11123;SDS011;5616;42.692;23.312;2022-08-19T06:26:13;13.00;;;7.80;;
11123;SDS011;5616;42.692;23.312;2022-08-19T06:28:42;18.33;;;8.35;;
11123;SDS011;5616;42.692;23.312;2022-08-19T06:31:12;19.92;;;8.27;;
11123;SDS011;5616;42.692;23.312;2022-08-19T06:33:40;13.95;;;8.20;;
11123;SDS011;5616;42.692;23.312;2022-08-19T06:36:07;9.98;;;7.43;;
11123;SDS011;5616;42.692;23.312;2022-08-19T06:38:41;14.13;;;8.40;;
11123;SDS011;5616;42.692;23.312;2022-08-19T06:41:08;14.82;;;8.48;;
11123;SDS011;5616;42.692;23.312;2022-08-19T06:43:37;11.00;;;8.35;;
11123;SDS011;5616;42.692;23.312;2022-08-19T06:46:04;12.40;;;8.07;;
11123;SDS011;5616;42.692;23.312;2022-08-19T06:48:37;14.48;;;8.90;;
11123;SDS011;5616;42.692;23.312;2022-08-19T06:51:04;11.93;;;7.82;;
11123;SDS011;5616;42.692;23.312;2022-08-19T06:53:31;15.93;;;10.45;;
11123;SDS011;5616;42.692;23.312;2022-08-19T06:55:58;24.67;;;11.95;;
11123;SDS011;5616;42.692;23.312;2022-08-19T06:58:27;14.32;;;8.43;;
11123;SDS011;5616;42.692;23.312;2022-08-19T07:00:59;11.15;;;8.23;;
11123;SDS011;5616;42.692;23.312;2022-08-19T07:03:28;11.18;;;7.57;;
11123;SDS011;5616;42.692;23.312;2022-08-19T07:05:57;23.17;;;11.27;;
11123;SDS011;5616;42.692;23.312;2022-08-19T07:08:25;30.05;;;14.80;;
11123;SDS011;5616;42.692;23.312;2022-08-19T07:10:52;15.82;;;7.78;;
11123;SDS011;5616;42.692;23.312;2022-08-19T07:13:20;10.05;;;6.65;;
11123;SDS011;5616;42.692;23.312;2022-08-19T07:15:47;11.30;;;8.35;;
11123;SDS011;5616;42.692;23.312;2022-08-19T07:18:17;18.27;;;10.60;;
11123;SDS011;5616;42.692;23.312;2022-08-19T07:20:46;14.43;;;8.73;;
11123;SDS011;5616;42.692;23.312;2022-08-19T07:23:13;9.95;;;6.80;;
11123;SDS011;5616;42.692;23.312;2022-08-19T07:25:40;9.88;;;7.55;;
11123;SDS011;5616;42.692;23.312;2022-08-19T07:28:08;12.55;;;7.38;;
11123;SDS011;5616;42.692;23.312;2022-08-19T07:30:38;15.70;;;10.65;;
11123;SDS011;5616;42.692;23.312;2022-08-19T07:33:06;15.77;;;8.13;;
11123;SDS011;5616;42.692;23.312;2022-08-19T07:35:34;16.02;;;8.13;;
11123;SDS011;5616;42.692;23.312;2022-08-19T07:38:01;13.32;;;8.98;;
11123;SDS011;5616;42.692;23.312;2022-08-19T07:40:29;16.58;;;9.70;;
11123;SDS011;5616;42.692;23.312;2022-08-19T07:42:56;19.13;;;10.40;;
11123;SDS011;5616;42.692;23.312;2022-08-19T07:45:23;13.38;;;7.40;;
11123;SDS011;5616;42.692;23.312;2022-08-19T07:47:50;14.60;;;7.68;;
11123;SDS011;5616;42.692;23.312;2022-08-19T07:50:18;14.93;;;7.10;;
11123;SDS011;5616;42.692;23.312;2022-08-19T07:52:48;10.38;;;7.20;;
11123;SDS011;5616;42.692;23.312;2022-08-19T07:55:17;22.73;;;7.78;;
11123;SDS011;5616;42.692;23.312;2022-08-19T07:57:45;14.13;;;6.80;;
11123;SDS011;5616;42.692;23.312;2022-08-19T08:00:12;10.98;;;6.93;;
11123;SDS011;5616;42.692;23.312;2022-08-19T08:02:40;12.00;;;6.35;;
11123;SDS011;5616;42.692;23.312;2022-08-19T08:05:08;8.82;;;6.57;;
11123;SDS011;5616;42.692;23.312;2022-08-19T08:07:54;22.75;;;10.23;;
11123;SDS011;5616;42.692;23.312;2022-08-19T08:10:39;9.50;;;7.20;;
11123;SDS011;5616;42.692;23.312;2022-08-19T08:13:07;16.80;;;7.03;;
11123;SDS011;5616;42.692;23.312;2022-08-19T08:15:34;7.75;;;5.50;;
11123;SDS011;5616;42.692;23.312;2022-08-19T08:18:02;6.55;;;5.68;;
11123;SDS011;5616;42.692;23.312;2022-08-19T08:20:29;8.05;;;6.57;;
11123;SDS011;5616;42.692;23.312;2022-08-19T08:22:58;7.60;;;5.68;;
11123;SDS011;5616;42.692;23.312;2022-08-19T08:25:42;9.07;;;5.18;;
11123;SDS011;5616;42.692;23.312;2022-08-19T08:28:09;9.77;;;5.28;;
11123;SDS011;5616;42.692;23.312;2022-08-19T08:30:36;7.53;;;5.13;;
11123;SDS011;5616;42.692;23.312;2022-08-19T08:33:06;7.50;;;4.25;;
11123;SDS011;5616;42.692;23.312;2022-08-19T08:35:33;6.50;;;4.40;;
11123;SDS011;5616;42.692;23.312;2022-08-19T08:38:02;6.88;;;3.88;;
11123;SDS011;5616;42.692;23.312;2022-08-19T08:40:31;8.35;;;3.70;;
11123;SDS011;5616;42.692;23.312;2022-08-19T08:43:06;4.43;;;3.75;;
11123;SDS011;5616;42.692;23.312;2022-08-19T08:45:43;6.50;;;3.47;;
11123;SDS011;5616;42.692;23.312;2022-08-19T08:48:16;5.95;;;3.70;;
11123;SDS011;5616;42.692;23.312;2022-08-19T08:50:46;5.13;;;3.10;;
11123;SDS011;5616;42.692;23.312;2022-08-19T08:53:17;4.82;;;3.10;;
11123;SDS011;5616;42.692;23.312;2022-08-19T08:55:45;3.97;;;3.30;;
11123;SDS011;5616;42.692;23.312;2022-08-19T08:58:13;4.72;;;3.20;;
11123;SDS011;5616;42.692;23.312;2022-08-19T09:00:48;5.93;;;3.28;;
11123;SDS011;5616;42.692;23.312;2022-08-19T09:03:17;5.93;;;3.42;;
11123;SDS011;5616;42.692;23.312;2022-08-19T09:05:48;5.97;;;3.67;;
11123;SDS011;5616;42.692;23.312;2022-08-19T09:08:27;6.18;;;3.33;;
11123;SDS011;5616;42.692;23.312;2022-08-19T09:11:06;5.68;;;3.53;;
11123;SDS011;5616;42.692;23.312;2022-08-19T09:13:39;5.32;;;3.05;;
11123;SDS011;5616;42.692;23.312;2022-08-19T09:16:15;4.70;;;3.10;;
11123;SDS011;5616;42.692;23.312;2022-08-19T09:18:47;6.28;;;3.20;;
11123;SDS011;5616;42.692;23.312;2022-08-19T09:21:17;3.85;;;3.33;;
11123;SDS011;5616;42.692;23.312;2022-08-19T09:23:46;4.63;;;3.47;;
11123;SDS011;5616;42.692;23.312;2022-08-19T09:26:14;4.82;;;3.40;;
11123;SDS011;5616;42.692;23.312;2022-08-19T09:28:42;3.80;;;3.47;;
11123;SDS011;5616;42.692;23.312;2022-08-19T09:31:11;6.03;;;3.50;;
11123;SDS011;5616;42.692;23.312;2022-08-19T09:33:39;5.97;;;3.35;;
11123;SDS011;5616;42.692;23.312;2022-08-19T09:36:10;3.58;;;3.08;;
11123;SDS011;5616;42.692;23.312;2022-08-19T09:38:39;5.40;;;2.97;;
11123;SDS011;5616;42.692;23.312;2022-08-19T09:41:10;67.97;;;5.47;;
11123;SDS011;5616;42.692;23.312;2022-08-19T09:43:39;15.77;;;3.40;;
11123;SDS011;5616;42.692;23.312;2022-08-19T09:46:07;8.75;;;2.95;;
11123;SDS011;5616;42.692;23.312;2022-08-19T09:48:34;4.43;;;2.70;;
11123;SDS011;5616;42.692;23.312;2022-08-19T09:51:03;5.53;;;2.58;;
11123;SDS011;5616;42.692;23.312;2022-08-19T09:53:33;3.90;;;3.40;;
11123;SDS011;5616;42.692;23.312;2022-08-19T09:56:00;3.63;;;2.83;;
11123;SDS011;5616;42.692;23.312;2022-08-19T09:58:28;5.95;;;3.75;;
11123;SDS011;5616;42.692;23.312;2022-08-19T10:00:56;4.00;;;2.75;;
11123;SDS011;5616;42.692;23.312;2022-08-19T10:03:23;5.32;;;3.00;;
11123;SDS011;5616;42.692;23.312;2022-08-19T10:05:51;5.63;;;3.17;;
11123;SDS011;5616;42.692;23.312;2022-08-19T10:08:19;3.75;;;2.95;;
11123;SDS011;5616;42.692;23.312;2022-08-19T10:10:49;3.63;;;3.33;;
11123;SDS011;5616;42.692;23.312;2022-08-19T10:13:17;3.92;;;3.28;;
11123;SDS011;5616;42.692;23.312;2022-08-19T10:15:52;5.05;;;3.50;;
11123;SDS011;5616;42.692;23.312;2022-08-19T10:18:20;4.43;;;3.40;;
11123;SDS011;5616;42.692;23.312;2022-08-19T10:20:48;4.03;;;3.05;;
11123;SDS011;5616;42.692;23.312;2022-08-19T10:23:17;4.82;;;3.40;;
11123;SDS011;5616;42.692;23.312;2022-08-19T10:25:45;4.80;;;3.40;;
11123;SDS011;5616;42.692;23.312;2022-08-19T10:28:12;5.10;;;3.47;;
11123;SDS011;5616;42.692;23.312;2022-08-19T10:30:39;3.60;;;3.25;;
11123;SDS011;5616;42.692;23.312;2022-08-19T10:33:08;4.25;;;3.47;;
11123;SDS011;5616;42.692;23.312;2022-08-19T10:35:35;4.50;;;3.40;;
11123;SDS011;5616;42.692;23.312;2022-08-19T10:38:03;4.57;;;3.63;;
11123;SDS011;5616;42.692;23.312;2022-08-19T10:40:30;6.45;;;3.58;;
11123;SDS011;5616;42.692;23.312;2022-08-19T10:42:56;4.82;;;3.40;;
11123;SDS011;5616;42.692;23.312;2022-08-19T10:45:23;6.07;;;4.07;;
11123;SDS011;5616;42.692;23.312;2022-08-19T10:47:51;5.30;;;4.03;;
11123;SDS011;5616;42.692;23.312;2022-08-19T10:50:20;6.65;;;4.72;;
11123;SDS011;5616;42.692;23.312;2022-08-19T10:53:05;5.57;;;3.67;;
11123;SDS011;5616;42.692;23.312;2022-08-19T10:55:34;6.35;;;3.70;;
11123;SDS011;5616;42.692;23.312;2022-08-19T10:58:20;5.65;;;3.50;;
11123;SDS011;5616;42.692;23.312;2022-08-19T11:00:53;4.38;;;3.17;;
11123;SDS011;5616;42.692;23.312;2022-08-19T11:03:23;4.30;;;3.75;;
11123;SDS011;5616;42.692;23.312;2022-08-19T11:05:58;6.03;;;4.00;;
11123;SDS011;5616;42.692;23.312;2022-08-19T11:08:25;5.00;;;3.80;;
11123;SDS011;5616;42.692;23.312;2022-08-19T11:10:52;6.65;;;4.45;;
11123;SDS011;5616;42.692;23.312;2022-08-19T11:13:26;5.63;;;3.92;;
11123;SDS011;5616;42.692;23.312;2022-08-19T11:15:57;11.10;;;4.22;;
11123;SDS011;5616;42.692;23.312;2022-08-19T11:18:26;7.25;;;3.95;;
11123;SDS011;5616;42.692;23.312;2022-08-19T11:20:54;6.38;;;4.95;;
11123;SDS011;5616;42.692;23.312;2022-08-19T11:23:22;4.43;;;3.92;;
11123;SDS011;5616;42.692;23.312;2022-08-19T11:25:49;6.13;;;3.72;;
11123;SDS011;5616;42.692;23.312;2022-08-19T11:28:16;8.50;;;4.10;;
11123;SDS011;5616;42.692;23.312;2022-08-19T11:30:43;4.57;;;3.70;;
11123;SDS011;5616;42.692;23.312;2022-08-19T11:33:10;5.88;;;4.05;;
11123;SDS011;5616;42.692;23.312;2022-08-19T11:35:38;7.38;;;4.60;;
11123;SDS011;5616;42.692;23.312;2022-08-19T11:38:06;9.73;;;5.15;;
11123;SDS011;5616;42.692;23.312;2022-08-19T11:40:34;5.45;;;4.05;;
11123;SDS011;5616;42.692;23.312;2022-08-19T11:43:01;6.70;;;4.70;;
11123;SDS011;5616;42.692;23.312;2022-08-19T11:45:29;9.50;;;5.25;;
11123;SDS011;5616;42.692;23.312;2022-08-19T11:47:56;11.57;;;7.13;;
11123;SDS011;5616;42.692;23.312;2022-08-19T11:50:23;6.68;;;4.50;;
11123;SDS011;5616;42.692;23.312;2022-08-19T11:52:52;11.88;;;5.80;;
11123;SDS011;5616;42.692;23.312;2022-08-19T11:55:20;6.95;;;4.82;;
11123;SDS011;5616;42.692;23.312;2022-08-19T11:57:49;7.20;;;3.95;;
11123;SDS011;5616;42.692;23.312;2022-08-19T12:00:16;5.82;;;3.78;;
11123;SDS011;5616;42.692;23.312;2022-08-19T12:02:42;4.00;;;3.60;;
11123;SDS011;5616;42.692;23.312;2022-08-19T12:05:09;23.05;;;5.38;;
11123;SDS011;5616;42.692;23.312;2022-08-19T12:07:36;6.13;;;3.75;;
11123;SDS011;5616;42.692;23.312;2022-08-19T12:10:03;8.13;;;4.07;;
11123;SDS011;5616;42.692;23.312;2022-08-19T12:12:31;6.82;;;3.83;;
11123;SDS011;5616;42.692;23.312;2022-08-19T12:14:59;4.63;;;3.63;;
11123;SDS011;5616;42.692;23.312;2022-08-19T12:17:27;6.88;;;3.60;;
11123;SDS011;5616;42.692;23.312;2022-08-19T12:19:56;5.25;;;3.80;;
11123;SDS011;5616;42.692;23.312;2022-08-19T12:22:22;5.20;;;4.13;;
11123;SDS011;5616;42.692;23.312;2022-08-19T12:24:49;6.70;;;3.67;;
11123;SDS011;5616;42.692;23.312;2022-08-19T12:27:18;4.72;;;3.40;;
11123;SDS011;5616;42.692;23.312;2022-08-19T12:29:45;4.88;;;3.80;;
11123;SDS011;5616;42.692;23.312;2022-08-19T12:32:13;5.90;;;3.75;;
11123;SDS011;5616;42.692;23.312;2022-08-19T12:34:42;6.53;;;3.58;;
11123;SDS011;5616;42.692;23.312;2022-08-19T12:37:09;4.20;;;3.65;;
11123;SDS011;5616;42.692;23.312;2022-08-19T12:39:38;5.22;;;3.47;;
11123;SDS011;5616;42.692;23.312;2022-08-19T12:42:06;5.05;;;3.70;;
11123;SDS011;5616;42.692;23.312;2022-08-19T12:44:34;5.43;;;3.58;;
11123;SDS011;5616;42.692;23.312;2022-08-19T12:47:01;5.45;;;3.75;;
11123;SDS011;5616;42.692;23.312;2022-08-19T12:49:31;4.72;;;3.47;;
11123;SDS011;5616;42.692;23.312;2022-08-19T12:51:58;5.57;;;3.58;;
11123;SDS011;5616;42.692;23.312;2022-08-19T12:54:25;4.90;;;3.28;;
11123;SDS011;5616;42.692;23.312;2022-08-19T12:56:52;10.43;;;4.40;;
11123;SDS011;5616;42.692;23.312;2022-08-19T12:59:20;4.57;;;3.72;;
11123;SDS011;5616;42.692;23.312;2022-08-19T13:01:47;5.85;;;3.63;;
11123;SDS011;5616;42.692;23.312;2022-08-19T13:04:14;10.10;;;6.35;;
11123;SDS011;5616;42.692;23.312;2022-08-19T13:06:43;5.28;;;3.65;;
11123;SDS011;5616;42.692;23.312;2022-08-19T13:09:10;5.93;;;4.05;;
11123;SDS011;5616;42.692;23.312;2022-08-19T13:11:37;8.18;;;3.50;;
11123;SDS011;5616;42.692;23.312;2022-08-19T13:14:04;6.28;;;3.80;;
11123;SDS011;5616;42.692;23.312;2022-08-19T13:16:31;5.63;;;4.03;;
11123;SDS011;5616;42.692;23.312;2022-08-19T13:18:58;8.32;;;3.53;;
11123;SDS011;5616;42.692;23.312;2022-08-19T13:21:28;3.95;;;3.50;;
11123;SDS011;5616;42.692;23.312;2022-08-19T13:23:57;4.82;;;3.90;;
11123;SDS011;5616;42.692;23.312;2022-08-19T13:26:24;8.32;;;3.95;;
11123;SDS011;5616;42.692;23.312;2022-08-19T13:28:51;9.15;;;3.88;;
11123;SDS011;5616;42.692;23.312;2022-08-19T13:31:38;5.57;;;3.42;;
11123;SDS011;5616;42.692;23.312;2022-08-19T13:34:28;5.30;;;3.63;;
11123;SDS011;5616;42.692;23.312;2022-08-19T13:36:57;6.95;;;4.13;;
11123;SDS011;5616;42.692;23.312;2022-08-19T13:39:25;11.90;;;4.30;;
11123;SDS011;5616;42.692;23.312;2022-08-19T13:41:53;7.35;;;3.75;;
11123;SDS011;5616;42.692;23.312;2022-08-19T13:44:19;6.55;;;3.67;;
11123;SDS011;5616;42.692;23.312;2022-08-19T13:46:47;3.88;;;3.47;;
11123;SDS011;5616;42.692;23.312;2022-08-19T13:49:17;5.10;;;3.85;;
11123;SDS011;5616;42.692;23.312;2022-08-19T13:51:44;4.75;;;3.50;;
11123;SDS011;5616;42.692;23.312;2022-08-19T13:54:11;3.97;;;3.55;;
11123;SDS011;5616;42.692;23.312;2022-08-19T13:56:41;6.13;;;3.70;;
11123;SDS011;5616;42.692;23.312;2022-08-19T13:59:09;5.57;;;3.80;;
11123;SDS011;5616;42.692;23.312;2022-08-19T14:01:36;5.90;;;3.72;;
11123;SDS011;5616;42.692;23.312;2022-08-19T14:04:03;4.97;;;3.80;;
11123;SDS011;5616;42.692;23.312;2022-08-19T14:06:31;8.75;;;3.90;;
11123;SDS011;5616;42.692;23.312;2022-08-19T14:08:58;5.75;;;3.90;;
11123;SDS011;5616;42.692;23.312;2022-08-19T14:11:25;4.18;;;3.38;;
11123;SDS011;5616;42.692;23.312;2022-08-19T14:13:54;5.95;;;5.00;;
11123;SDS011;5616;42.692;23.312;2022-08-19T14:16:21;4.13;;;3.72;;
11123;SDS011;5616;42.692;23.312;2022-08-19T14:18:48;7.18;;;4.80;;
11123;SDS011;5616;42.692;23.312;2022-08-19T14:21:16;8.85;;;3.75;;
11123;SDS011;5616;42.692;23.312;2022-08-19T14:23:45;6.25;;;3.50;;
11123;SDS011;5616;42.692;23.312;2022-08-19T14:26:14;5.32;;;4.10;;
11123;SDS011;5616;42.692;23.312;2022-08-19T14:28:42;9.23;;;4.20;;
11123;SDS011;5616;42.692;23.312;2022-08-19T14:31:12;4.28;;;3.88;;
11123;SDS011;5616;42.692;23.312;2022-08-19T14:33:41;4.20;;;3.80;;
11123;SDS011;5616;42.692;23.312;2022-08-19T14:36:08;7.20;;;4.32;;
11123;SDS011;5616;42.692;23.312;2022-08-19T14:38:35;8.60;;;4.10;;
11123;SDS011;5616;42.692;23.312;2022-08-19T14:41:06;5.43;;;3.67;;
11123;SDS011;5616;42.692;23.312;2022-08-19T14:43:38;5.55;;;4.25;;
11123;SDS011;5616;42.692;23.312;2022-08-19T14:46:05;4.85;;;4.45;;
11123;SDS011;5616;42.692;23.312;2022-08-19T14:48:34;7.78;;;4.13;;
11123;SDS011;5616;42.692;23.312;2022-08-19T14:51:03;4.78;;;4.38;;
11123;SDS011;5616;42.692;23.312;2022-08-19T14:53:30;5.80;;;4.07;;
11123;SDS011;5616;42.692;23.312;2022-08-19T14:55:59;5.72;;;4.10;;